Stephens, GA (30667)

10:12 AM EST on December 22, 2014 (GMT -0500)
Greensboro | Change Station
CLOSE
Current Station
Airport
Location: Greensboro,
Elevation: 676 ft
Nearby Weather Stations

Elev 676 ft 33.60 °N, 83.14 °W | Updated 17 minutes ago

Fog
Fog
43 °F
Feels Like 41 °F
N
4
Wind Variable Wind from ENE

Today
High -- | Low -- °F
--% Chance of Precip.
Yesterday
High -- | Low -- °F
Precip. -- in
7:33 AM 5:28 PM
New Moon, 0% visible
Pressure 30.03 in
Visibility 1.2 miles
Clouds Overcast 200 ft
Windchill 41 °F
Dew Point 43 °F
Humidity 100%
Rainfall 0.00 in
Snow Depth Not available.
UV 1 out of 12
Pollen 1.20 out of 12
Air Quality Not available.
Flu Activity Not available.
METAR K3J7 221455Z AUTO 06003KT 1 1/4SM BR OVC002 06/06 A3003 RMK AO2 LTG DSNT S

More Conditions Fewer Conditions

Pressure 30.03 in
Visibility 1.2 miles
Clouds Overcast 200 ft
Windchill 41 °F
Dew Point 43 °F
Humidity 100%
Rainfall 0.00 in
Snow Depth Not available.
UV 1 out of 12
Pollen 1.20 out of 12
Air Quality Not available.
Flu Activity Not available.
METAR K3J7 221455Z AUTO 06003KT 1 1/4SM BR OVC002 06/06 A3003 RMK AO2 LTG DSNT S

More Conditions Fewer Conditions

10-Day Weather Forecast

Almanac

Astronomy

Dec. 22, 2014 Rise Set
Actual Time
Civil Twilight
Nautical Twilight
Astronomical Twilight
Moon
Length of Visible Light
Length of Day
Tomorrow will be .
, % of the Moon is Illuminated

Today's Extremes

State Highs State Lows

Community

WunderPhotos

Upload Photos

1,779,610 photos uploaded!

WunderBlogs® & News

Nearby

Air Quality

  Air Quality AQ Index Pollutant
Not available.

Snow Depth

Station Depth Elevation

Earthquake Activity

City Distance Mag. Time & Date
Minimum magnitude displayed is 2.5.

Coastal Water Temperatures

Place Temperature

Nearby Weather Stations